sensor_id;sensor_type;location;lat;lon;timestamp;P1;durP1;ratioP1;P2;durP2;ratioP2
21890;SDS011;11110;52.386;16.940;2023-07-13T00:02:10;2.03;;;1.60;;
21890;SDS011;11110;52.386;16.940;2023-07-13T00:04:38;2.40;;;1.63;;
21890;SDS011;11110;52.386;16.940;2023-07-13T00:07:08;3.03;;;1.73;;
21890;SDS011;11110;52.386;16.940;2023-07-13T00:09:37;2.42;;;1.52;;
21890;SDS011;11110;52.386;16.940;2023-07-13T00:12:20;1.85;;;1.60;;
21890;SDS011;11110;52.386;16.940;2023-07-13T00:14:50;1.88;;;1.60;;
21890;SDS011;11110;52.386;16.940;2023-07-13T00:17:18;1.98;;;1.45;;
21890;SDS011;11110;52.386;16.940;2023-07-13T00:19:48;2.78;;;1.42;;
21890;SDS011;11110;52.386;16.940;2023-07-13T00:22:17;1.58;;;1.48;;
21890;SDS011;11110;52.386;16.940;2023-07-13T00:24:46;3.08;;;1.40;;
21890;SDS011;11110;52.386;16.940;2023-07-13T00:27:15;2.70;;;1.50;;
21890;SDS011;11110;52.386;16.940;2023-07-13T00:29:46;2.30;;;1.85;;
21890;SDS011;11110;52.386;16.940;2023-07-13T00:32:14;3.88;;;1.88;;
21890;SDS011;11110;52.386;16.940;2023-07-13T00:34:43;2.03;;;1.50;;
21890;SDS011;11110;52.386;16.940;2023-07-13T00:37:11;1.85;;;1.40;;
21890;SDS011;11110;52.386;16.940;2023-07-13T00:39:41;2.97;;;1.52;;
21890;SDS011;11110;52.386;16.940;2023-07-13T00:42:10;1.60;;;1.50;;
21890;SDS011;11110;52.386;16.940;2023-07-13T00:44:39;1.98;;;1.52;;
21890;SDS011;11110;52.386;16.940;2023-07-13T00:47:07;2.85;;;1.40;;
21890;SDS011;11110;52.386;16.940;2023-07-13T00:49:36;2.08;;;1.52;;
21890;SDS011;11110;52.386;16.940;2023-07-13T00:52:05;2.60;;;1.80;;
21890;SDS011;11110;52.386;16.940;2023-07-13T00:54:36;3.30;;;1.63;;
21890;SDS011;11110;52.386;16.940;2023-07-13T00:57:12;3.95;;;1.55;;
21890;SDS011;11110;52.386;16.940;2023-07-13T00:59:45;2.53;;;1.65;;
21890;SDS011;11110;52.386;16.940;2023-07-13T01:02:17;3.25;;;1.90;;
21890;SDS011;11110;52.386;16.940;2023-07-13T01:04:48;3.88;;;1.80;;
21890;SDS011;11110;52.386;16.940;2023-07-13T01:07:17;2.42;;;1.88;;
21890;SDS011;11110;52.386;16.940;2023-07-13T01:09:46;2.15;;;1.80;;
21890;SDS011;11110;52.386;16.940;2023-07-13T01:12:16;1.77;;;1.58;;
21890;SDS011;11110;52.386;16.940;2023-07-13T01:14:46;2.20;;;1.60;;
21890;SDS011;11110;52.386;16.940;2023-07-13T01:17:16;2.45;;;1.77;;
21890;SDS011;11110;52.386;16.940;2023-07-13T01:19:45;2.75;;;2.00;;
21890;SDS011;11110;52.386;16.940;2023-07-13T01:22:16;2.67;;;1.50;;
21890;SDS011;11110;52.386;16.940;2023-07-13T01:24:46;2.35;;;1.65;;
21890;SDS011;11110;52.386;16.940;2023-07-13T01:27:16;1.65;;;1.50;;
21890;SDS011;11110;52.386;16.940;2023-07-13T01:29:48;2.00;;;1.80;;
21890;SDS011;11110;52.386;16.940;2023-07-13T01:32:18;2.40;;;1.55;;
21890;SDS011;11110;52.386;16.940;2023-07-13T01:34:54;4.40;;;1.88;;
21890;SDS011;11110;52.386;16.940;2023-07-13T01:37:24;2.88;;;1.77;;
21890;SDS011;11110;52.386;16.940;2023-07-13T01:39:54;3.45;;;1.55;;
21890;SDS011;11110;52.386;16.940;2023-07-13T01:42:22;2.60;;;1.70;;
21890;SDS011;11110;52.386;16.940;2023-07-13T01:44:51;1.50;;;1.30;;
21890;SDS011;11110;52.386;16.940;2023-07-13T01:47:19;4.25;;;1.60;;
21890;SDS011;11110;52.386;16.940;2023-07-13T01:49:48;3.78;;;1.45;;
21890;SDS011;11110;52.386;16.940;2023-07-13T01:52:18;1.83;;;1.50;;
21890;SDS011;11110;52.386;16.940;2023-07-13T01:54:48;2.05;;;1.58;;
21890;SDS011;11110;52.386;16.940;2023-07-13T01:57:17;2.95;;;1.60;;
21890;SDS011;11110;52.386;16.940;2023-07-13T01:59:46;2.00;;;1.50;;
21890;SDS011;11110;52.386;16.940;2023-07-13T02:02:14;1.70;;;1.60;;
21890;SDS011;11110;52.386;16.940;2023-07-13T02:04:43;2.45;;;1.73;;
21890;SDS011;11110;52.386;16.940;2023-07-13T02:07:12;2.65;;;1.35;;
21890;SDS011;11110;52.386;16.940;2023-07-13T02:09:42;3.10;;;1.50;;
21890;SDS011;11110;52.386;16.940;2023-07-13T02:12:11;2.55;;;1.58;;
21890;SDS011;11110;52.386;16.940;2023-07-13T02:14:40;2.70;;;1.80;;
21890;SDS011;11110;52.386;16.940;2023-07-13T02:17:09;1.95;;;1.60;;
21890;SDS011;11110;52.386;16.940;2023-07-13T02:19:38;1.80;;;1.30;;
21890;SDS011;11110;52.386;16.940;2023-07-13T02:22:06;1.60;;;1.50;;
21890;SDS011;11110;52.386;16.940;2023-07-13T02:24:35;3.53;;;1.63;;
21890;SDS011;11110;52.386;16.940;2023-07-13T02:27:04;1.65;;;1.52;;
21890;SDS011;11110;52.386;16.940;2023-07-13T02:29:35;2.22;;;1.67;;
21890;SDS011;11110;52.386;16.940;2023-07-13T02:32:03;2.83;;;1.65;;
21890;SDS011;11110;52.386;16.940;2023-07-13T02:34:33;1.80;;;1.70;;
21890;SDS011;11110;52.386;16.940;2023-07-13T02:37:03;1.70;;;1.60;;
21890;SDS011;11110;52.386;16.940;2023-07-13T02:39:33;1.92;;;1.80;;
21890;SDS011;11110;52.386;16.940;2023-07-13T02:42:03;3.17;;;1.75;;
21890;SDS011;11110;52.386;16.940;2023-07-13T02:44:32;4.90;;;1.50;;
21890;SDS011;11110;52.386;16.940;2023-07-13T02:47:02;2.28;;;1.80;;
21890;SDS011;11110;52.386;16.940;2023-07-13T02:49:31;4.15;;;1.98;;
21890;SDS011;11110;52.386;16.940;2023-07-13T02:51:59;1.92;;;1.80;;
21890;SDS011;11110;52.386;16.940;2023-07-13T02:54:28;2.00;;;1.80;;
21890;SDS011;11110;52.386;16.940;2023-07-13T02:56:56;1.88;;;1.65;;
21890;SDS011;11110;52.386;16.940;2023-07-13T02:59:25;3.35;;;1.88;;
21890;SDS011;11110;52.386;16.940;2023-07-13T03:01:54;3.15;;;2.50;;
21890;SDS011;11110;52.386;16.940;2023-07-13T03:04:24;3.85;;;2.05;;
21890;SDS011;11110;52.386;16.940;2023-07-13T03:06:52;5.40;;;2.20;;
21890;SDS011;11110;52.386;16.940;2023-07-13T03:09:28;2.95;;;2.53;;
21890;SDS011;11110;52.386;16.940;2023-07-13T03:11:58;2.95;;;2.30;;
21890;SDS011;11110;52.386;16.940;2023-07-13T03:14:30;4.00;;;2.22;;
21890;SDS011;11110;52.386;16.940;2023-07-13T03:17:00;3.78;;;2.80;;
21890;SDS011;11110;52.386;16.940;2023-07-13T03:19:32;3.50;;;2.40;;
21890;SDS011;11110;52.386;16.940;2023-07-13T03:22:02;4.03;;;2.83;;
21890;SDS011;11110;52.386;16.940;2023-07-13T03:24:33;5.60;;;3.38;;
21890;SDS011;11110;52.386;16.940;2023-07-13T03:27:06;5.75;;;3.70;;
21890;SDS011;11110;52.386;16.940;2023-07-13T03:29:38;3.72;;;3.03;;
21890;SDS011;11110;52.386;16.940;2023-07-13T03:32:06;2.97;;;2.78;;
21890;SDS011;11110;52.386;16.940;2023-07-13T03:34:37;3.97;;;2.50;;
21890;SDS011;11110;52.386;16.940;2023-07-13T03:37:06;2.95;;;2.53;;
21890;SDS011;11110;52.386;16.940;2023-07-13T03:39:36;3.30;;;2.83;;
21890;SDS011;11110;52.386;16.940;2023-07-13T03:42:05;4.10;;;2.58;;
21890;SDS011;11110;52.386;16.940;2023-07-13T03:44:35;3.42;;;2.80;;
21890;SDS011;11110;52.386;16.940;2023-07-13T03:47:03;4.45;;;2.80;;
21890;SDS011;11110;52.386;16.940;2023-07-13T03:49:37;3.30;;;2.60;;
21890;SDS011;11110;52.386;16.940;2023-07-13T03:52:06;3.47;;;2.50;;
21890;SDS011;11110;52.386;16.940;2023-07-13T03:54:34;3.33;;;2.97;;
21890;SDS011;11110;52.386;16.940;2023-07-13T03:57:03;4.65;;;3.10;;
21890;SDS011;11110;52.386;16.940;2023-07-13T03:59:34;3.67;;;2.90;;
21890;SDS011;11110;52.386;16.940;2023-07-13T04:02:03;2.95;;;2.70;;
21890;SDS011;11110;52.386;16.940;2023-07-13T04:04:34;5.10;;;3.75;;
21890;SDS011;11110;52.386;16.940;2023-07-13T04:07:04;4.20;;;3.80;;
21890;SDS011;11110;52.386;16.940;2023-07-13T04:09:32;4.03;;;3.60;;
21890;SDS011;11110;52.386;16.940;2023-07-13T04:12:02;3.97;;;3.55;;
21890;SDS011;11110;52.386;16.940;2023-07-13T04:14:31;3.55;;;3.25;;
21890;SDS011;11110;52.386;16.940;2023-07-13T04:17:00;4.60;;;3.25;;
21890;SDS011;11110;52.386;16.940;2023-07-13T04:19:29;5.65;;;3.50;;
21890;SDS011;11110;52.386;16.940;2023-07-13T04:21:57;5.05;;;3.95;;
21890;SDS011;11110;52.386;16.940;2023-07-13T04:24:27;7.07;;;3.20;;
21890;SDS011;11110;52.386;16.940;2023-07-13T04:26:55;6.70;;;3.35;;
21890;SDS011;11110;52.386;16.940;2023-07-13T04:29:26;4.82;;;2.95;;
21890;SDS011;11110;52.386;16.940;2023-07-13T04:31:55;5.55;;;3.50;;
21890;SDS011;11110;52.386;16.940;2023-07-13T04:34:24;4.88;;;3.30;;
21890;SDS011;11110;52.386;16.940;2023-07-13T04:36:52;4.00;;;3.60;;
21890;SDS011;11110;52.386;16.940;2023-07-13T04:39:21;4.72;;;4.10;;
21890;SDS011;11110;52.386;16.940;2023-07-13T04:41:51;4.38;;;3.95;;
21890;SDS011;11110;52.386;16.940;2023-07-13T04:44:20;5.25;;;3.70;;
21890;SDS011;11110;52.386;16.940;2023-07-13T04:46:48;7.10;;;4.20;;
21890;SDS011;11110;52.386;16.940;2023-07-13T04:49:17;4.25;;;3.85;;
21890;SDS011;11110;52.386;16.940;2023-07-13T04:51:45;6.60;;;4.00;;
21890;SDS011;11110;52.386;16.940;2023-07-13T04:54:14;5.05;;;3.70;;
21890;SDS011;11110;52.386;16.940;2023-07-13T04:56:42;4.85;;;3.70;;
21890;SDS011;11110;52.386;16.940;2023-07-13T04:59:12;4.63;;;3.88;;
21890;SDS011;11110;52.386;16.940;2023-07-13T05:01:41;4.90;;;4.10;;
21890;SDS011;11110;52.386;16.940;2023-07-13T05:04:09;7.45;;;4.53;;
21890;SDS011;11110;52.386;16.940;2023-07-13T05:06:38;4.50;;;3.90;;
21890;SDS011;11110;52.386;16.940;2023-07-13T05:09:07;5.97;;;3.80;;
21890;SDS011;11110;52.386;16.940;2023-07-13T05:11:35;8.00;;;4.25;;
21890;SDS011;11110;52.386;16.940;2023-07-13T05:14:04;5.43;;;3.75;;
21890;SDS011;11110;52.386;16.940;2023-07-13T05:16:34;5.90;;;4.57;;
21890;SDS011;11110;52.386;16.940;2023-07-13T05:19:03;10.35;;;4.78;;
21890;SDS011;11110;52.386;16.940;2023-07-13T05:21:32;5.82;;;4.70;;
21890;SDS011;11110;52.386;16.940;2023-07-13T05:24:00;5.43;;;4.60;;
21890;SDS011;11110;52.386;16.940;2023-07-13T05:26:49;5.32;;;4.47;;
21890;SDS011;11110;52.386;16.940;2023-07-13T05:29:18;6.38;;;4.50;;
21890;SDS011;11110;52.386;16.940;2023-07-13T05:31:48;7.90;;;4.55;;
21890;SDS011;11110;52.386;16.940;2023-07-13T05:34:17;6.80;;;5.00;;
21890;SDS011;11110;52.386;16.940;2023-07-13T05:36:46;7.28;;;4.63;;
21890;SDS011;11110;52.386;16.940;2023-07-13T05:39:15;6.95;;;4.53;;
21890;SDS011;11110;52.386;16.940;2023-07-13T05:41:44;5.55;;;4.38;;
21890;SDS011;11110;52.386;16.940;2023-07-13T05:44:12;10.10;;;4.78;;
21890;SDS011;11110;52.386;16.940;2023-07-13T05:46:41;7.57;;;5.10;;
21890;SDS011;11110;52.386;16.940;2023-07-13T05:49:11;4.75;;;3.97;;
21890;SDS011;11110;52.386;16.940;2023-07-13T05:51:39;6.53;;;4.40;;
21890;SDS011;11110;52.386;16.940;2023-07-13T05:54:08;7.30;;;4.07;;
21890;SDS011;11110;52.386;16.940;2023-07-13T05:56:37;5.13;;;4.35;;
21890;SDS011;11110;52.386;16.940;2023-07-13T05:59:06;7.05;;;4.50;;
21890;SDS011;11110;52.386;16.940;2023-07-13T06:01:34;6.88;;;4.93;;
21890;SDS011;11110;52.386;16.940;2023-07-13T06:04:03;8.50;;;4.45;;
21890;SDS011;11110;52.386;16.940;2023-07-13T06:06:33;8.90;;;5.20;;
21890;SDS011;11110;52.386;16.940;2023-07-13T06:09:02;7.50;;;4.30;;
21890;SDS011;11110;52.386;16.940;2023-07-13T06:11:30;6.85;;;4.43;;
21890;SDS011;11110;52.386;16.940;2023-07-13T06:13:59;7.97;;;4.85;;
21890;SDS011;11110;52.386;16.940;2023-07-13T06:16:28;6.22;;;4.63;;
21890;SDS011;11110;52.386;16.940;2023-07-13T06:18:57;5.55;;;3.83;;
21890;SDS011;11110;52.386;16.940;2023-07-13T06:21:25;6.63;;;4.60;;
21890;SDS011;11110;52.386;16.940;2023-07-13T06:23:55;6.57;;;4.50;;
21890;SDS011;11110;52.386;16.940;2023-07-13T06:26:24;5.20;;;4.70;;
21890;SDS011;11110;52.386;16.940;2023-07-13T06:28:53;8.77;;;5.18;;
21890;SDS011;11110;52.386;16.940;2023-07-13T06:31:21;6.10;;;4.70;;
21890;SDS011;11110;52.386;16.940;2023-07-13T06:33:50;7.60;;;4.40;;
21890;SDS011;11110;52.386;16.940;2023-07-13T06:36:18;6.72;;;4.15;;
21890;SDS011;11110;52.386;16.940;2023-07-13T06:38:47;7.65;;;4.32;;
21890;SDS011;11110;52.386;16.940;2023-07-13T06:41:16;8.80;;;4.65;;
21890;SDS011;11110;52.386;16.940;2023-07-13T06:43:45;5.65;;;5.13;;
21890;SDS011;11110;52.386;16.940;2023-07-13T06:46:13;5.93;;;5.15;;
21890;SDS011;11110;52.386;16.940;2023-07-13T06:48:42;7.38;;;4.88;;
21890;SDS011;11110;52.386;16.940;2023-07-13T06:51:11;9.27;;;4.80;;
21890;SDS011;11110;52.386;16.940;2023-07-13T06:53:40;7.80;;;5.03;;
21890;SDS011;11110;52.386;16.940;2023-07-13T06:56:10;8.35;;;5.10;;
21890;SDS011;11110;52.386;16.940;2023-07-13T06:58:40;7.35;;;4.80;;
21890;SDS011;11110;52.386;16.940;2023-07-13T07:01:08;6.70;;;4.93;;
21890;SDS011;11110;52.386;16.940;2023-07-13T07:03:38;10.88;;;5.95;;
21890;SDS011;11110;52.386;16.940;2023-07-13T07:06:12;7.32;;;5.18;;
21890;SDS011;11110;52.386;16.940;2023-07-13T07:08:42;8.43;;;4.95;;
21890;SDS011;11110;52.386;16.940;2023-07-13T07:11:12;10.18;;;5.22;;
21890;SDS011;11110;52.386;16.940;2023-07-13T07:13:46;6.55;;;4.97;;
21890;SDS011;11110;52.386;16.940;2023-07-13T07:16:15;7.93;;;4.80;;
21890;SDS011;11110;52.386;16.940;2023-07-13T07:18:45;8.88;;;4.50;;
21890;SDS011;11110;52.386;16.940;2023-07-13T07:21:14;7.50;;;5.20;;
21890;SDS011;11110;52.386;16.940;2023-07-13T07:23:43;11.85;;;5.40;;
21890;SDS011;11110;52.386;16.940;2023-07-13T07:26:11;5.53;;;4.72;;
21890;SDS011;11110;52.386;16.940;2023-07-13T07:28:40;8.30;;;5.00;;
21890;SDS011;11110;52.386;16.940;2023-07-13T07:31:15;8.38;;;5.30;;
21890;SDS011;11110;52.386;16.940;2023-07-13T07:33:46;9.25;;;5.15;;
21890;SDS011;11110;52.386;16.940;2023-07-13T07:36:16;6.18;;;4.80;;
21890;SDS011;11110;52.386;16.940;2023-07-13T07:38:48;9.48;;;5.28;;
21890;SDS011;11110;52.386;16.940;2023-07-13T07:41:16;5.90;;;4.47;;
21890;SDS011;11110;52.386;16.940;2023-07-13T07:43:48;5.63;;;5.10;;
21890;SDS011;11110;52.386;16.940;2023-07-13T07:46:18;7.30;;;4.90;;
21890;SDS011;11110;52.386;16.940;2023-07-13T07:48:46;13.50;;;4.93;;
21890;SDS011;11110;52.386;16.940;2023-07-13T07:51:15;7.25;;;4.95;;
21890;SDS011;11110;52.386;16.940;2023-07-13T07:53:43;6.57;;;4.30;;
21890;SDS011;11110;52.386;16.940;2023-07-13T07:56:12;8.63;;;4.05;;
21890;SDS011;11110;52.386;16.940;2023-07-13T07:58:45;5.32;;;3.75;;
21890;SDS011;11110;52.386;16.940;2023-07-13T08:01:18;5.57;;;3.53;;
21890;SDS011;11110;52.386;16.940;2023-07-13T08:03:50;5.25;;;3.80;;
21890;SDS011;11110;52.386;16.940;2023-07-13T08:06:21;7.55;;;3.70;;
21890;SDS011;11110;52.386;16.940;2023-07-13T08:08:53;5.60;;;3.55;;
21890;SDS011;11110;52.386;16.940;2023-07-13T08:11:22;4.97;;;3.80;;
21890;SDS011;11110;52.386;16.940;2023-07-13T08:13:54;4.53;;;3.42;;
21890;SDS011;11110;52.386;16.940;2023-07-13T08:16:23;7.47;;;4.32;;
21890;SDS011;11110;52.386;16.940;2023-07-13T08:18:52;5.60;;;3.78;;
21890;SDS011;11110;52.386;16.940;2023-07-13T08:21:21;5.40;;;3.30;;
21890;SDS011;11110;52.386;16.940;2023-07-13T08:23:50;5.50;;;3.13;;
21890;SDS011;11110;52.386;16.940;2023-07-13T08:26:18;3.45;;;3.03;;
21890;SDS011;11110;52.386;16.940;2023-07-13T08:28:47;6.30;;;2.97;;
21890;SDS011;11110;52.386;16.940;2023-07-13T08:31:15;4.88;;;2.72;;
21890;SDS011;11110;52.386;16.940;2023-07-13T08:33:45;3.72;;;2.65;;
21890;SDS011;11110;52.386;16.940;2023-07-13T08:36:14;5.00;;;2.85;;
21890;SDS011;11110;52.386;16.940;2023-07-13T08:38:42;4.47;;;2.92;;
21890;SDS011;11110;52.386;16.940;2023-07-13T08:41:12;3.80;;;2.88;;
21890;SDS011;11110;52.386;16.940;2023-07-13T08:43:42;5.18;;;3.08;;
21890;SDS011;11110;52.386;16.940;2023-07-13T08:46:16;8.75;;;3.40;;
21890;SDS011;11110;52.386;16.940;2023-07-13T08:48:50;5.10;;;3.47;;
21890;SDS011;11110;52.386;16.940;2023-07-13T08:51:24;5.38;;;2.90;;
21890;SDS011;11110;52.386;16.940;2023-07-13T08:54:03;4.82;;;3.25;;
21890;SDS011;11110;52.386;16.940;2023-07-13T08:56:35;4.75;;;3.03;;
21890;SDS011;11110;52.386;16.940;2023-07-13T08:59:05;5.55;;;3.28;;
21890;SDS011;11110;52.386;16.940;2023-07-13T09:01:46;5.20;;;3.28;;
21890;SDS011;11110;52.386;16.940;2023-07-13T09:04:25;5.60;;;3.50;;
21890;SDS011;11110;52.386;16.940;2023-07-13T09:06:59;3.83;;;3.20;;
21890;SDS011;11110;52.386;16.940;2023-07-13T09:09:37;5.82;;;3.50;;
21890;SDS011;11110;52.386;16.940;2023-07-13T09:12:17;7.05;;;3.22;;
21890;SDS011;11110;52.386;16.940;2023-07-13T09:14:53;7.35;;;3.00;;
21890;SDS011;11110;52.386;16.940;2023-07-13T09:17:23;3.85;;;3.25;;
21890;SDS011;11110;52.386;16.940;2023-07-13T09:20:00;9.65;;;3.42;;
21890;SDS011;11110;52.386;16.940;2023-07-13T09:22:34;6.28;;;3.17;;
21890;SDS011;11110;52.386;16.940;2023-07-13T09:25:09;4.88;;;3.03;;
21890;SDS011;11110;52.386;16.940;2023-07-13T09:27:48;6.45;;;3.80;;
21890;SDS011;11110;52.386;16.940;2023-07-13T09:30:23;7.03;;;3.70;;
21890;SDS011;11110;52.386;16.940;2023-07-13T09:32:56;8.73;;;3.83;;
21890;SDS011;11110;52.386;16.940;2023-07-13T09:35:28;7.10;;;3.47;;
21890;SDS011;11110;52.386;16.940;2023-07-13T09:37:58;5.80;;;3.45;;
21890;SDS011;11110;52.386;16.940;2023-07-13T09:40:44;7.95;;;3.65;;
21890;SDS011;11110;52.386;16.940;2023-07-13T09:43:20;5.18;;;2.90;;
21890;SDS011;11110;52.386;16.940;2023-07-13T09:45:49;6.25;;;3.70;;
21890;SDS011;11110;52.386;16.940;2023-07-13T09:48:18;7.13;;;3.42;;
21890;SDS011;11110;52.386;16.940;2023-07-13T09:50:48;7.85;;;3.40;;
21890;SDS011;11110;52.386;16.940;2023-07-13T09:53:22;5.63;;;3.47;;
21890;SDS011;11110;52.386;16.940;2023-07-13T09:55:51;7.55;;;3.47;;
21890;SDS011;11110;52.386;16.940;2023-07-13T09:58:20;5.63;;;3.72;;
21890;SDS011;11110;52.386;16.940;2023-07-13T10:00:54;4.05;;;3.53;;
21890;SDS011;11110;52.386;16.940;2023-07-13T10:03:25;5.97;;;3.40;;
21890;SDS011;11110;52.386;16.940;2023-07-13T10:06:00;7.00;;;3.67;;
21890;SDS011;11110;52.386;16.940;2023-07-13T10:08:38;7.68;;;3.78;;
21890;SDS011;11110;52.386;16.940;2023-07-13T10:11:11;5.85;;;3.53;;
21890;SDS011;11110;52.386;16.940;2023-07-13T10:13:53;9.80;;;4.00;;
21890;SDS011;11110;52.386;16.940;2023-07-13T10:16:24;5.05;;;3.22;;
21890;SDS011;11110;52.386;16.940;2023-07-13T10:18:55;7.05;;;3.55;;
21890;SDS011;11110;52.386;16.940;2023-07-13T10:21:30;4.93;;;3.40;;
21890;SDS011;11110;52.386;16.940;2023-07-13T10:24:04;6.10;;;3.33;;
21890;SDS011;11110;52.386;16.940;2023-07-13T10:26:42;7.07;;;3.20;;
21890;SDS011;11110;52.386;16.940;2023-07-13T10:29:15;5.53;;;3.17;;
21890;SDS011;11110;52.386;16.940;2023-07-13T10:31:45;3.85;;;3.03;;
21890;SDS011;11110;52.386;16.940;2023-07-13T10:34:14;4.43;;;2.75;;
21890;SDS011;11110;52.386;16.940;2023-07-13T10:36:45;5.00;;;2.72;;
21890;SDS011;11110;52.386;16.940;2023-07-13T10:39:16;6.82;;;2.92;;
21890;SDS011;11110;52.386;16.940;2023-07-13T10:41:48;6.43;;;3.05;;
21890;SDS011;11110;52.386;16.940;2023-07-13T10:44:21;3.97;;;2.65;;
21890;SDS011;11110;52.386;16.940;2023-07-13T10:46:55;3.75;;;2.58;;
21890;SDS011;11110;52.386;16.940;2023-07-13T10:49:27;3.30;;;2.60;;
21890;SDS011;11110;52.386;16.940;2023-07-13T10:52:00;3.65;;;2.55;;
21890;SDS011;11110;52.386;16.940;2023-07-13T10:54:30;5.47;;;2.63;;
21890;SDS011;11110;52.386;16.940;2023-07-13T10:57:18;4.03;;;2.78;;
21890;SDS011;11110;52.386;16.940;2023-07-13T10:59:49;4.32;;;2.70;;
21890;SDS011;11110;52.386;16.940;2023-07-13T11:02:37;4.40;;;3.03;;
21890;SDS011;11110;52.386;16.940;2023-07-13T11:05:14;6.45;;;3.00;;
21890;SDS011;11110;52.386;16.940;2023-07-13T11:07:56;4.03;;;2.85;;
21890;SDS011;11110;52.386;16.940;2023-07-13T11:10:46;5.15;;;3.00;;
21890;SDS011;11110;52.386;16.940;2023-07-13T11:13:37;3.95;;;2.65;;
21890;SDS011;11110;52.386;16.940;2023-07-13T11:16:43;3.60;;;3.00;;
21890;SDS011;11110;52.386;16.940;2023-07-13T11:22:13;5.55;;;3.90;;
21890;SDS011;11110;52.386;16.940;2023-07-13T11:24:52;4.22;;;2.92;;
21890;SDS011;11110;52.386;16.940;2023-07-13T11:27:37;8.65;;;3.00;;
21890;SDS011;11110;52.386;16.940;2023-07-13T11:30:21;6.28;;;2.80;;
21890;SDS011;11110;52.386;16.940;2023-07-13T11:33:02;3.55;;;2.60;;
21890;SDS011;11110;52.386;16.940;2023-07-13T11:35:42;2.58;;;2.00;;
21890;SDS011;11110;52.386;16.940;2023-07-13T11:38:17;4.05;;;2.65;;
21890;SDS011;11110;52.386;16.940;2023-07-13T11:40:51;6.07;;;2.40;;
21890;SDS011;11110;52.386;16.940;2023-07-13T11:43:22;3.17;;;2.33;;
21890;SDS011;11110;52.386;16.940;2023-07-13T11:45:52;5.03;;;2.70;;
21890;SDS011;11110;52.386;16.940;2023-07-13T11:48:22;4.25;;;2.45;;
21890;SDS011;11110;52.386;16.940;2023-07-13T11:50:59;8.02;;;2.63;;
21890;SDS011;11110;52.386;16.940;2023-07-13T11:53:34;6.30;;;2.45;;
21890;SDS011;11110;52.386;16.940;2023-07-13T11:56:08;3.88;;;2.22;;
21890;SDS011;11110;52.386;16.940;2023-07-13T11:58:37;3.40;;;2.08;;
21890;SDS011;11110;52.386;16.940;2023-07-13T12:01:06;4.25;;;2.30;;
21890;SDS011;11110;52.386;16.940;2023-07-13T12:03:42;3.70;;;2.35;;
21890;SDS011;11110;52.386;16.940;2023-07-13T12:06:21;2.97;;;1.80;;
21890;SDS011;11110;52.386;16.940;2023-07-13T12:08:57;3.00;;;1.77;;
21890;SDS011;11110;52.386;16.940;2023-07-13T12:11:29;4.43;;;1.90;;
21890;SDS011;11110;52.386;16.940;2023-07-13T12:14:00;1.90;;;1.70;;
21890;SDS011;11110;52.386;16.940;2023-07-13T12:16:29;3.92;;;1.40;;
21890;SDS011;11110;52.386;16.940;2023-07-13T12:19:00;3.67;;;1.55;;
21890;SDS011;11110;52.386;16.940;2023-07-13T12:21:31;2.10;;;1.60;;
21890;SDS011;11110;52.386;16.940;2023-07-13T12:24:02;2.17;;;1.58;;
21890;SDS011;11110;52.386;16.940;2023-07-13T12:26:33;3.17;;;1.80;;
21890;SDS011;11110;52.386;16.940;2023-07-13T12:29:04;1.65;;;1.55;;
21890;SDS011;11110;52.386;16.940;2023-07-13T12:31:35;1.60;;;1.38;;
21890;SDS011;11110;52.386;16.940;2023-07-13T12:34:08;4.97;;;1.75;;
21890;SDS011;11110;52.386;16.940;2023-07-13T12:36:40;2.92;;;1.63;;
21890;SDS011;11110;52.386;16.940;2023-07-13T12:39:15;5.45;;;1.70;;
21890;SDS011;11110;52.386;16.940;2023-07-13T12:41:48;3.75;;;1.88;;
21890;SDS011;11110;52.386;16.940;2023-07-13T12:44:18;4.22;;;2.30;;
21890;SDS011;11110;52.386;16.940;2023-07-13T12:46:56;2.15;;;1.50;;
21890;SDS011;11110;52.386;16.940;2023-07-13T12:49:28;2.08;;;1.70;;
21890;SDS011;11110;52.386;16.940;2023-07-13T12:52:00;2.42;;;1.60;;
21890;SDS011;11110;52.386;16.940;2023-07-13T12:54:31;2.13;;;1.48;;
21890;SDS011;11110;52.386;16.940;2023-07-13T12:57:01;3.85;;;1.58;;
21890;SDS011;11110;52.386;16.940;2023-07-13T12:59:30;3.70;;;1.40;;
21890;SDS011;11110;52.386;16.940;2023-07-13T13:02:13;3.08;;;1.42;;
21890;SDS011;11110;52.386;16.940;2023-07-13T13:04:55;3.58;;;1.48;;
21890;SDS011;11110;52.386;16.940;2023-07-13T13:07:25;3.28;;;1.70;;
21890;SDS011;11110;52.386;16.940;2023-07-13T13:09:53;2.15;;;1.48;;
21890;SDS011;11110;52.386;16.940;2023-07-13T13:12:24;5.10;;;1.52;;
21890;SDS011;11110;52.386;16.940;2023-07-13T13:14:53;3.20;;;1.40;;
21890;SDS011;11110;52.386;16.940;2023-07-13T13:17:29;1.73;;;1.13;;
21890;SDS011;11110;52.386;16.940;2023-07-13T13:19:59;3.55;;;1.35;;
21890;SDS011;11110;52.386;16.940;2023-07-13T13:22:28;2.58;;;1.50;;
21890;SDS011;11110;52.386;16.940;2023-07-13T13:24:56;2.88;;;1.48;;
21890;SDS011;11110;52.386;16.940;2023-07-13T13:27:27;1.45;;;1.02;;
21890;SDS011;11110;52.386;16.940;2023-07-13T13:29:57;1.15;;;1.00;;
21890;SDS011;11110;52.386;16.940;2023-07-13T13:32:28;2.67;;;1.30;;
21890;SDS011;11110;52.386;16.940;2023-07-13T13:34:56;2.33;;;1.00;;
21890;SDS011;11110;52.386;16.940;2023-07-13T13:37:25;2.83;;;1.30;;
21890;SDS011;11110;52.386;16.940;2023-07-13T13:39:53;3.33;;;1.20;;
21890;SDS011;11110;52.386;16.940;2023-07-13T13:42:36;4.82;;;1.20;;
21890;SDS011;11110;52.386;16.940;2023-07-13T13:45:06;3.33;;;1.35;;
21890;SDS011;11110;52.386;16.940;2023-07-13T13:47:37;2.35;;;1.20;;
21890;SDS011;11110;52.386;16.940;2023-07-13T13:50:12;3.47;;;1.35;;
21890;SDS011;11110;52.386;16.940;2023-07-13T13:52:42;4.05;;;1.60;;
21890;SDS011;11110;52.386;16.940;2023-07-13T13:55:13;2.15;;;1.10;;
21890;SDS011;11110;52.386;16.940;2023-07-13T13:57:44;3.05;;;1.40;;
21890;SDS011;11110;52.386;16.940;2023-07-13T14:00:14;2.60;;;1.20;;
21890;SDS011;11110;52.386;16.940;2023-07-13T14:02:44;3.55;;;1.50;;
21890;SDS011;11110;52.386;16.940;2023-07-13T14:05:17;5.43;;;1.42;;
21890;SDS011;11110;52.386;16.940;2023-07-13T14:07:49;3.20;;;1.30;;
21890;SDS011;11110;52.386;16.940;2023-07-13T14:10:19;1.27;;;1.13;;
21890;SDS011;11110;52.386;16.940;2023-07-13T14:12:52;2.83;;;1.63;;
21890;SDS011;11110;52.386;16.940;2023-07-13T14:15:24;4.57;;;1.48;;
21890;SDS011;11110;52.386;16.940;2023-07-13T14:17:55;1.52;;;1.40;;
21890;SDS011;11110;52.386;16.940;2023-07-13T14:20:25;1.92;;;1.40;;
21890;SDS011;11110;52.386;16.940;2023-07-13T14:22:54;2.97;;;1.40;;
21890;SDS011;11110;52.386;16.940;2023-07-13T14:25:22;1.30;;;1.20;;
21890;SDS011;11110;52.386;16.940;2023-07-13T14:27:56;2.25;;;1.10;;
21890;SDS011;11110;52.386;16.940;2023-07-13T14:30:27;2.63;;;1.35;;
21890;SDS011;11110;52.386;16.940;2023-07-13T14:32:56;3.78;;;1.30;;
21890;SDS011;11110;52.386;16.940;2023-07-13T14:35:24;2.92;;;1.45;;
21890;SDS011;11110;52.386;16.940;2023-07-13T14:37:54;3.20;;;1.50;;
21890;SDS011;11110;52.386;16.940;2023-07-13T14:40:25;2.13;;;1.48;;
21890;SDS011;11110;52.386;16.940;2023-07-13T14:42:58;4.38;;;1.30;;
21890;SDS011;11110;52.386;16.940;2023-07-13T14:45:26;3.85;;;1.38;;
21890;SDS011;11110;52.386;16.940;2023-07-13T14:47:56;3.70;;;1.35;;
21890;SDS011;11110;52.386;16.940;2023-07-13T14:50:28;3.45;;;1.30;;
21890;SDS011;11110;52.386;16.940;2023-07-13T14:52:59;2.03;;;1.73;;
21890;SDS011;11110;52.386;16.940;2023-07-13T14:55:28;1.23;;;1.10;;
21890;SDS011;11110;52.386;16.940;2023-07-13T14:57:58;3.80;;;1.20;;
21890;SDS011;11110;52.386;16.940;2023-07-13T15:00:26;3.55;;;1.27;;